createdAt,value
2023-12-23T00:00:13.206Z,21
2023-12-23T00:01:56.909Z,21
2023-12-23T00:03:40.599Z,21
2023-12-23T00:05:24.329Z,21
2023-12-23T00:07:08.009Z,21
2023-12-23T00:08:51.708Z,21
2023-12-23T00:10:35.421Z,21
2023-12-23T00:12:19.115Z,21
2023-12-23T00:14:02.821Z,21
2023-12-23T00:15:46.517Z,21
2023-12-23T00:17:30.237Z,21
2023-12-23T00:19:13.941Z,21
2023-12-23T00:20:57.644Z,21
2023-12-23T00:22:41.352Z,21
2023-12-23T00:24:25.051Z,21
2023-12-23T00:26:08.753Z,21
2023-12-23T00:27:52.456Z,21
2023-12-23T00:29:36.157Z,21
2023-12-23T00:31:19.883Z,21
2023-12-23T00:33:03.553Z,21.1
2023-12-23T00:34:47.254Z,21.1
2023-12-23T00:36:30.966Z,21
2023-12-23T00:38:14.673Z,21.1
2023-12-23T00:39:58.371Z,21
2023-12-23T00:41:42.065Z,21.1
2023-12-23T00:43:25.822Z,21.1
2023-12-23T00:45:09.499Z,21.1
2023-12-23T00:46:53.166Z,21.1
2023-12-23T00:48:36.881Z,21
2023-12-23T00:50:20.576Z,21.1
2023-12-23T00:52:04.281Z,21.1
2023-12-23T00:53:47.988Z,21.1
2023-12-23T00:55:31.690Z,21.1
2023-12-23T00:57:15.395Z,21.1
2023-12-23T00:58:59.082Z,21.1
2023-12-23T01:00:42.793Z,21.1
2023-12-23T01:02:26.490Z,21.1
2023-12-23T01:04:10.202Z,21.1
2023-12-23T01:05:53.880Z,21.1
2023-12-23T01:07:37.582Z,21.1
2023-12-23T01:09:21.288Z,21.1
2023-12-23T01:11:04.998Z,21.1
2023-12-23T01:12:48.683Z,21.1
2023-12-23T01:14:32.410Z,21.1
2023-12-23T01:16:16.115Z,21.1
2023-12-23T01:17:59.807Z,21.1
2023-12-23T01:19:43.517Z,21.1
2023-12-23T01:21:27.204Z,21.1
2023-12-23T01:23:10.925Z,21.1
2023-12-23T01:24:54.622Z,21.1
2023-12-23T01:26:38.332Z,21.1
2023-12-23T01:28:22.023Z,21.1
2023-12-23T01:30:05.740Z,21.1
2023-12-23T01:31:49.430Z,21
2023-12-23T01:33:33.168Z,21
2023-12-23T01:35:16.837Z,21.1
2023-12-23T01:37:00.537Z,21.1
2023-12-23T01:38:44.241Z,21.1
2023-12-23T01:40:27.957Z,21.1
2023-12-23T01:42:11.629Z,21.1
2023-12-23T01:43:55.343Z,21.1
2023-12-23T01:45:39.050Z,21.1
2023-12-23T01:47:22.771Z,21.1
2023-12-23T01:49:06.481Z,21.1
2023-12-23T01:50:50.156Z,21.1
2023-12-23T01:52:33.873Z,21
2023-12-23T01:54:17.598Z,21
2023-12-23T01:56:01.276Z,21.1
2023-12-23T01:57:44.956Z,21.1
2023-12-23T01:59:28.655Z,21.1
2023-12-23T02:01:12.381Z,21
2023-12-23T02:02:56.081Z,21.1
2023-12-23T02:04:39.768Z,21.1
2023-12-23T02:06:23.471Z,21.1
2023-12-23T02:08:07.176Z,21.1
2023-12-23T02:09:50.879Z,21.1
2023-12-23T02:11:34.578Z,21.1
2023-12-23T02:13:18.276Z,21.1
2023-12-23T02:15:01.996Z,21.1
2023-12-23T02:16:45.701Z,21.1
2023-12-23T02:18:29.397Z,21.1
2023-12-23T02:20:13.097Z,21.1
2023-12-23T02:21:56.801Z,21.1
2023-12-23T02:23:40.517Z,21.1
2023-12-23T02:25:24.219Z,21.1
2023-12-23T02:27:07.894Z,21.1
2023-12-23T02:28:51.612Z,21.1
2023-12-23T02:30:35.316Z,21.1
2023-12-23T02:32:19.017Z,21.1
2023-12-23T02:34:02.712Z,21.1
2023-12-23T02:35:46.407Z,21.1
2023-12-23T02:37:30.114Z,21.1
2023-12-23T02:39:13.811Z,21.1
2023-12-23T02:40:57.523Z,21.1
2023-12-23T02:42:41.219Z,21.1
2023-12-23T02:44:24.925Z,21.1
2023-12-23T02:46:08.632Z,21.1
2023-12-23T02:47:52.327Z,21.1
2023-12-23T02:49:36.025Z,21.1
2023-12-23T02:51:19.736Z,21.1
2023-12-23T02:53:03.428Z,21.1
2023-12-23T02:54:47.134Z,21.1
2023-12-23T02:56:30.845Z,21.1
2023-12-23T02:58:14.548Z,21.1
2023-12-23T02:59:58.246Z,21.1
2023-12-23T03:01:41.944Z,21.1
2023-12-23T03:03:25.650Z,21.1
2023-12-23T03:05:09.339Z,21.1
2023-12-23T03:06:53.050Z,21.1
2023-12-23T03:08:36.761Z,21.1
2023-12-23T03:10:20.432Z,21.1
2023-12-23T03:12:04.158Z,21.1
2023-12-23T03:13:47.855Z,21.1
2023-12-23T03:15:31.565Z,21.1
2023-12-23T03:17:15.255Z,21.1
2023-12-23T03:18:58.968Z,21.1
2023-12-23T03:20:42.654Z,21.1
2023-12-23T03:22:26.352Z,21.1
2023-12-23T03:24:10.075Z,21.1
2023-12-23T03:25:53.765Z,21.1
2023-12-23T03:27:37.462Z,21.1
2023-12-23T03:29:21.169Z,21.1
2023-12-23T03:31:04.874Z,21.1
2023-12-23T03:32:48.570Z,21.1
2023-12-23T03:34:32.262Z,21.1
2023-12-23T03:36:15.984Z,21.1
2023-12-23T03:37:59.689Z,21.1
2023-12-23T03:39:43.380Z,21.1
2023-12-23T03:41:27.096Z,21.1
2023-12-23T03:43:10.793Z,21.1
2023-12-23T03:44:54.496Z,21.1
2023-12-23T03:46:38.173Z,21.1
2023-12-23T03:48:21.893Z,21.1
2023-12-23T03:50:05.616Z,21.1
2023-12-23T03:51:49.314Z,21.1
2023-12-23T03:53:33.034Z,21.1
2023-12-23T03:55:16.717Z,21.1
2023-12-23T03:57:00.414Z,21.1
2023-12-23T03:58:44.119Z,21.1
2023-12-23T04:00:27.831Z,21.1
2023-12-23T04:02:11.506Z,21.1
2023-12-23T04:03:55.211Z,21.1
2023-12-23T04:05:38.930Z,21.1
2023-12-23T04:07:22.629Z,21.1
2023-12-23T04:09:06.337Z,21.1
2023-12-23T04:10:50.033Z,21.1
2023-12-23T04:12:33.739Z,21.1
2023-12-23T04:14:17.444Z,21.1
2023-12-23T04:16:01.153Z,21.1
2023-12-23T04:17:44.853Z,21.1
2023-12-23T04:19:28.553Z,21.1
2023-12-23T04:21:12.263Z,21.1
2023-12-23T04:22:55.958Z,21.1
2023-12-23T04:24:39.673Z,21.1
2023-12-23T04:26:23.367Z,21.1
2023-12-23T04:28:07.073Z,21.1
2023-12-23T04:29:50.765Z,21.1
2023-12-23T04:31:34.459Z,21.1
2023-12-23T04:33:18.166Z,21.1
2023-12-23T04:35:01.869Z,21.1
2023-12-23T04:38:29.266Z,21.1
2023-12-23T04:40:12.982Z,21.1
2023-12-23T04:41:56.682Z,21.1
2023-12-23T04:43:40.397Z,21.1
2023-12-23T04:45:24.090Z,21.1
2023-12-23T04:47:07.793Z,21.1
2023-12-23T04:48:51.483Z,21.1
2023-12-23T04:50:35.197Z,21.1
2023-12-23T04:52:18.894Z,21.1
2023-12-23T04:54:02.592Z,21.1
2023-12-23T04:55:46.290Z,21.1
2023-12-23T04:57:29.992Z,21.1
2023-12-23T04:59:13.702Z,21.1
2023-12-23T05:00:57.424Z,21.1
2023-12-23T05:02:41.108Z,21.1
2023-12-23T05:04:24.832Z,21.1
2023-12-23T05:06:08.521Z,21.1
2023-12-23T05:07:52.218Z,21.1
2023-12-23T05:09:35.913Z,21.1
2023-12-23T05:11:19.611Z,21.1
2023-12-23T05:13:03.322Z,21.1
2023-12-23T05:14:47.040Z,21.1
2023-12-23T05:16:30.724Z,21.1
2023-12-23T05:18:14.440Z,21.1
2023-12-23T05:19:58.137Z,21.1
2023-12-23T05:21:41.828Z,21.2
2023-12-23T05:23:25.540Z,21.1
2023-12-23T05:25:09.239Z,21.1
2023-12-23T05:26:52.964Z,21.1
2023-12-23T05:28:36.650Z,21.1
2023-12-23T05:30:20.362Z,21.1
2023-12-23T05:32:04.051Z,21.1
2023-12-23T05:33:47.752Z,21.1
2023-12-23T05:35:31.441Z,21.1
2023-12-23T05:37:15.170Z,21.1
2023-12-23T05:38:58.855Z,21.1
2023-12-23T05:40:42.597Z,21.1
2023-12-23T05:42:26.262Z,21.1
2023-12-23T05:44:09.968Z,21.1
2023-12-23T05:45:53.678Z,21.1
2023-12-23T05:47:37.376Z,21.1
2023-12-23T05:49:21.065Z,21.1
2023-12-23T05:51:04.770Z,21.1
2023-12-23T05:52:48.487Z,21.2
2023-12-23T05:54:32.183Z,21.1
2023-12-23T05:56:15.881Z,21.2
2023-12-23T05:57:59.599Z,21.1
2023-12-23T05:59:43.308Z,21.1
2023-12-23T06:01:26.990Z,21.1
2023-12-23T06:03:10.680Z,21.2
2023-12-23T06:04:54.404Z,21.2
2023-12-23T06:06:38.096Z,21.2
2023-12-23T06:08:21.803Z,21.2
2023-12-23T06:10:05.499Z,21.2
2023-12-23T06:11:49.189Z,21.2
2023-12-23T06:13:32.909Z,21.2
2023-12-23T06:15:16.605Z,21.2
2023-12-23T06:17:00.310Z,21.2
2023-12-23T06:18:44.002Z,21.2
2023-12-23T06:20:27.709Z,21.2
2023-12-23T06:22:11.425Z,21.2
2023-12-23T06:23:55.125Z,21.2
2023-12-23T06:25:38.812Z,21.2
2023-12-23T06:27:22.507Z,21.2
2023-12-23T06:29:06.237Z,21.1
2023-12-23T06:30:49.913Z,21.2
2023-12-23T06:32:33.626Z,21.2
2023-12-23T06:34:17.341Z,21.2
2023-12-23T06:36:01.040Z,21.2
2023-12-23T06:37:44.747Z,21.2
2023-12-23T06:39:28.448Z,21.2
2023-12-23T06:41:12.140Z,21.2
2023-12-23T06:42:55.835Z,21.2
2023-12-23T06:44:39.545Z,21.2
2023-12-23T06:46:23.250Z,21.2
2023-12-23T06:48:06.953Z,21.2
2023-12-23T06:49:50.692Z,21.2
2023-12-23T06:51:34.402Z,21.2
2023-12-23T06:53:18.061Z,21.2
2023-12-23T06:55:01.761Z,21.2
2023-12-23T06:56:45.451Z,21.2
2023-12-23T06:58:29.159Z,21.2
2023-12-23T07:00:12.872Z,21.2
2023-12-23T07:01:56.559Z,21.2
2023-12-23T07:03:40.277Z,21.2
2023-12-23T07:05:23.986Z,21.2
2023-12-23T07:07:07.688Z,21.2
2023-12-23T07:08:51.396Z,21.2
2023-12-23T07:10:35.100Z,21.2
2023-12-23T07:12:18.793Z,21.2
2023-12-23T07:14:02.557Z,21.2
2023-12-23T07:15:46.194Z,21.2
2023-12-23T07:17:29.895Z,21.2
2023-12-23T07:19:13.731Z,21.1
2023-12-23T07:20:57.285Z,21.1
2023-12-23T07:22:41.040Z,21.1
2023-12-23T07:24:24.704Z,21.1
2023-12-23T07:26:08.454Z,21.2
2023-12-23T07:27:52.211Z,21.1
2023-12-23T07:29:35.828Z,21.1
2023-12-23T07:31:19.513Z,21.1
2023-12-23T07:33:03.239Z,21.1
2023-12-23T07:34:46.922Z,21.1
2023-12-23T07:36:30.605Z,21.2
2023-12-23T07:38:14.338Z,21.2
2023-12-23T07:39:58.034Z,21.2
2023-12-23T07:41:41.732Z,21.2
2023-12-23T07:43:25.443Z,21.2
2023-12-23T07:45:09.152Z,21.1
2023-12-23T07:46:52.838Z,21.2
2023-12-23T07:48:36.555Z,21.1
2023-12-23T07:50:20.258Z,21.2
2023-12-23T07:52:03.969Z,21.2
2023-12-23T07:53:47.655Z,21.2
2023-12-23T07:55:31.351Z,21.2
2023-12-23T07:57:15.059Z,21.2
2023-12-23T07:58:58.766Z,21.2
2023-12-23T08:00:42.455Z,21.2
2023-12-23T08:02:26.165Z,21.2
2023-12-23T08:04:09.859Z,21.1
2023-12-23T08:05:53.580Z,21.2
2023-12-23T08:07:37.274Z,21.1
2023-12-23T08:09:20.973Z,21.1
2023-12-23T08:11:04.692Z,21.1
2023-12-23T08:12:48.373Z,21.1
2023-12-23T08:14:32.070Z,21.1
2023-12-23T08:16:15.778Z,21.1
2023-12-23T08:17:59.495Z,21.1
2023-12-23T08:19:43.193Z,21.1
2023-12-23T08:21:26.895Z,21.1
2023-12-23T08:23:10.595Z,21.1
2023-12-23T08:24:54.301Z,21.1
2023-12-23T08:26:38.177Z,21.1
2023-12-23T08:28:21.703Z,21.1
2023-12-23T08:30:05.417Z,21.1
2023-12-23T08:31:49.111Z,21.1
2023-12-23T08:33:32.812Z,21.1
2023-12-23T08:35:16.511Z,21.1
2023-12-23T08:37:00.205Z,21.1
2023-12-23T08:38:43.913Z,21.1
2023-12-23T08:40:27.627Z,21.1
2023-12-23T08:42:11.310Z,21.1
2023-12-23T08:43:55.016Z,21
2023-12-23T08:45:38.726Z,21.1
2023-12-23T08:47:22.429Z,21.1
2023-12-23T08:49:06.131Z,21.1
2023-12-23T08:50:49.827Z,21.1
2023-12-23T08:52:33.529Z,21.1
2023-12-23T08:54:17.229Z,21.1
2023-12-23T08:56:00.957Z,21.2
2023-12-23T08:57:44.636Z,21.2
2023-12-23T08:59:28.345Z,21.2
2023-12-23T09:01:12.045Z,21.2
2023-12-23T09:02:55.742Z,21.2
2023-12-23T09:04:39.426Z,21.2
2023-12-23T09:06:23.155Z,21.2
2023-12-23T09:08:06.855Z,21.3
2023-12-23T09:09:50.566Z,21.3
2023-12-23T09:11:34.240Z,21.3
2023-12-23T09:13:17.958Z,21.3
2023-12-23T09:15:01.656Z,21.3
2023-12-23T09:16:45.361Z,21.3
2023-12-23T09:18:29.058Z,21.3
2023-12-23T09:20:12.777Z,21.3
2023-12-23T09:21:56.480Z,21.3
2023-12-23T09:23:40.164Z,21.3
2023-12-23T09:25:23.897Z,21.3
2023-12-23T09:27:07.565Z,21.3
2023-12-23T09:28:51.282Z,21.3
2023-12-23T09:30:34.981Z,21.3
2023-12-23T09:32:18.678Z,21.4
2023-12-23T09:34:02.380Z,21.4
2023-12-23T09:35:46.082Z,21.4
2023-12-23T09:37:29.797Z,21.4
2023-12-23T09:39:13.492Z,21.4
2023-12-23T09:40:57.181Z,21.4
2023-12-23T09:42:40.879Z,21.4
2023-12-23T09:44:24.588Z,21.4
2023-12-23T09:46:08.306Z,21.4
2023-12-23T09:47:52.000Z,21.4
2023-12-23T09:49:35.728Z,21.4
2023-12-23T09:51:19.413Z,21.4
2023-12-23T09:53:03.113Z,21.4
2023-12-23T09:54:46.816Z,21.4
2023-12-23T09:56:30.501Z,21.4
2023-12-23T09:58:14.217Z,21.4
2023-12-23T09:59:57.913Z,21.4
2023-12-23T10:01:41.767Z,21.4
2023-12-23T10:03:25.307Z,21.4
2023-12-23T10:05:09.024Z,21.4
2023-12-23T10:06:52.722Z,21.4
2023-12-23T10:08:36.438Z,21.4
2023-12-23T10:10:20.141Z,21.4
2023-12-23T10:12:03.832Z,21.4
2023-12-23T10:13:47.541Z,21.5
2023-12-23T10:15:31.252Z,21.5
2023-12-23T10:17:14.942Z,21.5
2023-12-23T10:18:58.630Z,21.5
2023-12-23T10:20:42.341Z,21.5
2023-12-23T10:22:26.053Z,21.4
2023-12-23T10:24:09.745Z,21.4
2023-12-23T10:25:53.438Z,21.4
2023-12-23T10:27:37.151Z,21.4
2023-12-23T10:29:20.847Z,21.4
2023-12-23T10:31:04.550Z,21.3
2023-12-23T10:32:48.264Z,21.3
2023-12-23T10:34:31.954Z,21.3
2023-12-23T10:36:15.649Z,21.3
2023-12-23T10:37:59.365Z,21.3
2023-12-23T10:39:43.100Z,21.3
2023-12-23T10:41:26.764Z,21.3
2023-12-23T10:43:10.461Z,21.3
2023-12-23T10:44:54.162Z,21.3
2023-12-23T10:46:37.877Z,21.3
2023-12-23T10:48:21.642Z,21.3
2023-12-23T10:50:05.277Z,21.3
2023-12-23T10:51:48.981Z,21.3
2023-12-23T10:53:32.685Z,21.3
2023-12-23T10:55:16.371Z,21.3
2023-12-23T10:57:00.084Z,21.3
2023-12-23T10:58:43.788Z,21.2
2023-12-23T11:00:27.510Z,21.2
2023-12-23T11:02:11.191Z,21.2
2023-12-23T11:03:54.892Z,21.2
2023-12-23T11:05:38.588Z,21.2
2023-12-23T11:07:22.304Z,21.2
2023-12-23T11:09:06.000Z,21.1
2023-12-23T11:10:49.688Z,21.1
2023-12-23T11:12:33.395Z,21.2
2023-12-23T11:14:17.115Z,21.1
2023-12-23T11:16:00.813Z,21.1
2023-12-23T11:17:44.510Z,21.1
2023-12-23T11:19:28.211Z,21.1
2023-12-23T11:21:11.905Z,21.1
2023-12-23T11:22:55.616Z,21.1
2023-12-23T11:24:39.330Z,21.1
2023-12-23T11:26:23.029Z,21.1
2023-12-23T11:28:06.767Z,21.1
2023-12-23T11:29:50.427Z,21.1
2023-12-23T11:31:34.137Z,21.1
2023-12-23T11:33:17.841Z,21.1
2023-12-23T11:35:01.531Z,21.1
2023-12-23T11:36:45.230Z,21.1
2023-12-23T11:38:28.937Z,21.1
2023-12-23T11:40:12.689Z,21.1
2023-12-23T11:41:56.340Z,21.1
2023-12-23T11:43:40.032Z,21.1
2023-12-23T11:45:23.776Z,21.1
2023-12-23T11:47:07.447Z,21.1
2023-12-23T11:48:51.177Z,21.1
2023-12-23T11:50:34.848Z,21.1
2023-12-23T11:52:18.552Z,21.1
2023-12-23T11:54:02.272Z,21.1
2023-12-23T11:55:46.071Z,21.1
2023-12-23T11:57:29.666Z,21.1
2023-12-23T11:59:13.367Z,21.1
2023-12-23T12:00:57.076Z,21.1
2023-12-23T12:02:40.776Z,21.1
2023-12-23T12:04:24.170Z,21.1
2023-12-23T12:06:07.857Z,21.1
2023-12-23T12:07:51.581Z,21.1
2023-12-23T12:09:35.274Z,21
2023-12-23T12:11:18.963Z,20.9
2023-12-23T12:13:02.668Z,20.9
2023-12-23T12:14:46.376Z,20.9
2023-12-23T12:16:30.076Z,21
2023-12-23T12:18:13.779Z,21
2023-12-23T12:19:57.476Z,21
2023-12-23T12:21:41.169Z,21
2023-12-23T12:23:24.961Z,21
2023-12-23T12:25:08.588Z,21
2023-12-23T12:26:52.283Z,21
2023-12-23T12:28:35.992Z,21
2023-12-23T12:30:19.686Z,21.1
2023-12-23T12:32:03.393Z,21.1
2023-12-23T12:33:47.605Z,21
2023-12-23T12:35:30.817Z,21.1
2023-12-23T12:37:15.171Z,21.1
2023-12-23T12:38:58.222Z,21.1
2023-12-23T12:40:41.916Z,21
2023-12-23T12:42:25.621Z,21
2023-12-23T12:44:09.323Z,21
2023-12-23T12:45:53.025Z,21.1
2023-12-23T12:47:36.749Z,21
2023-12-23T12:49:20.415Z,21.1
2023-12-23T12:51:04.128Z,21.1
2023-12-23T12:52:47.829Z,21.1
2023-12-23T12:54:31.566Z,21.1
2023-12-23T12:56:15.220Z,21.1
2023-12-23T12:57:58.927Z,21.1
2023-12-23T12:59:42.635Z,21.1
2023-12-23T13:01:26.345Z,21.2
2023-12-23T13:03:10.044Z,21.2
2023-12-23T13:04:53.735Z,21.3
2023-12-23T13:06:37.440Z,21.3
2023-12-23T13:08:21.154Z,21.4
2023-12-23T13:10:04.846Z,21.4
2023-12-23T13:11:48.539Z,21.4
2023-12-23T13:13:32.261Z,21.5
2023-12-23T13:15:15.950Z,21.4
2023-12-23T13:16:59.655Z,21.4
2023-12-23T13:18:43.355Z,21.4
2023-12-23T13:20:27.050Z,21.4
2023-12-23T13:22:10.773Z,21.4
2023-12-23T13:23:54.454Z,21.4
2023-12-23T13:25:38.171Z,21.4
2023-12-23T13:27:21.861Z,21.3
2023-12-23T13:29:05.572Z,21.3
2023-12-23T13:30:49.281Z,21.2
2023-12-23T13:32:32.968Z,21.2
2023-12-23T13:34:16.680Z,21.2
2023-12-23T13:36:00.383Z,21.2
2023-12-23T13:37:44.092Z,21.2
2023-12-23T13:39:27.765Z,21.2
2023-12-23T13:41:11.477Z,21.2
2023-12-23T13:42:55.201Z,21.2
2023-12-23T13:44:38.894Z,21.2
2023-12-23T13:46:22.605Z,21.2
2023-12-23T13:48:06.296Z,21.2
2023-12-23T13:49:50.007Z,21.2
2023-12-23T13:51:33.708Z,21.2
2023-12-23T13:53:17.413Z,21.2
2023-12-23T13:55:01.240Z,21.2
2023-12-23T13:56:44.817Z,21.2
2023-12-23T13:58:28.542Z,21.2
2023-12-23T14:00:12.217Z,21.2
2023-12-23T14:01:55.905Z,21.2
2023-12-23T14:03:39.611Z,21.2
2023-12-23T14:05:23.340Z,21.2
2023-12-23T14:07:07.032Z,21.2
2023-12-23T14:08:50.733Z,21.2
2023-12-23T14:10:34.423Z,21.2
2023-12-23T14:12:18.127Z,21.2
2023-12-23T14:14:01.838Z,21.2
2023-12-23T14:15:45.540Z,21.2
2023-12-23T14:17:29.318Z,21.2
2023-12-23T14:19:12.980Z,21.2
2023-12-23T14:20:56.671Z,21.2
2023-12-23T14:22:40.378Z,21.2
2023-12-23T14:24:24.060Z,21.3
2023-12-23T14:26:07.768Z,21.3
2023-12-23T14:27:51.470Z,21.3
2023-12-23T14:29:35.166Z,21.2
2023-12-23T14:31:18.849Z,21.2
2023-12-23T14:33:02.576Z,21.2
2023-12-23T14:34:46.268Z,21.2
2023-12-23T14:36:29.990Z,21.2
2023-12-23T14:38:13.678Z,21.2
2023-12-23T14:39:57.383Z,21.2
2023-12-23T14:41:41.103Z,21.2
2023-12-23T14:43:24.800Z,21.2
2023-12-23T14:45:08.494Z,21.2
2023-12-23T14:46:52.177Z,21.2
2023-12-23T14:48:35.898Z,21.1
2023-12-23T14:50:19.618Z,21.1
2023-12-23T14:52:03.288Z,21.1
2023-12-23T14:53:47.000Z,21.1
2023-12-23T14:55:30.696Z,21.1
2023-12-23T14:57:14.420Z,21.1
2023-12-23T14:58:58.106Z,21.1
2023-12-23T15:00:41.834Z,21.1
2023-12-23T15:02:25.502Z,21.1
2023-12-23T15:04:09.234Z,21.1
2023-12-23T15:05:52.951Z,21.1
2023-12-23T15:07:36.631Z,21
2023-12-23T15:09:20.323Z,21
2023-12-23T15:11:04.023Z,21
2023-12-23T15:12:47.721Z,21
2023-12-23T15:14:31.434Z,21
2023-12-23T15:16:15.195Z,21
2023-12-23T15:17:58.841Z,21
2023-12-23T15:19:42.524Z,21
2023-12-23T15:21:26.233Z,21
2023-12-23T15:23:09.936Z,21
2023-12-23T15:24:53.622Z,21
2023-12-23T15:26:37.345Z,21
2023-12-23T15:28:21.037Z,20.9
2023-12-23T15:30:04.733Z,21
2023-12-23T15:31:48.459Z,21
2023-12-23T15:33:32.176Z,21
2023-12-23T15:35:15.847Z,21
2023-12-23T15:36:59.570Z,21
2023-12-23T15:38:43.272Z,21.1
2023-12-23T15:40:26.982Z,21.1
2023-12-23T15:42:10.679Z,21.1
2023-12-23T15:43:54.386Z,21.1
2023-12-23T15:45:38.098Z,21.1
2023-12-23T15:47:21.777Z,21.1
2023-12-23T15:49:05.478Z,21.2
2023-12-23T15:50:49.191Z,21.2
2023-12-23T15:52:32.880Z,21.2
2023-12-23T15:54:16.576Z,21.2
2023-12-23T15:56:00.295Z,21.2
2023-12-23T15:57:43.999Z,21.2
2023-12-23T15:59:27.705Z,21.2
2023-12-23T16:01:11.414Z,21.2
2023-12-23T16:02:55.105Z,21.2
2023-12-23T16:04:38.811Z,21.3
2023-12-23T16:06:22.517Z,21.3
2023-12-23T16:08:06.228Z,21.3
2023-12-23T16:09:49.899Z,21.3
2023-12-23T16:11:33.618Z,21.3
2023-12-23T16:13:17.316Z,21.3
2023-12-23T16:15:01.036Z,21.3
2023-12-23T16:16:44.716Z,21.3
2023-12-23T16:18:28.427Z,21.4
2023-12-23T16:20:12.188Z,21.4
2023-12-23T16:21:55.846Z,21.4
2023-12-23T16:23:39.561Z,21.4
2023-12-23T16:25:23.247Z,21.4
2023-12-23T16:27:06.948Z,21.4
2023-12-23T16:28:50.745Z,21.4
2023-12-23T16:30:34.348Z,21.4
2023-12-23T16:32:18.061Z,21.4
2023-12-23T16:34:01.772Z,21.4
2023-12-23T16:35:45.473Z,21.5
2023-12-23T16:37:29.181Z,21.5
2023-12-23T16:39:12.853Z,21.5
2023-12-23T16:40:56.585Z,21.5
2023-12-23T16:42:40.264Z,21.6
2023-12-23T16:44:23.983Z,21.6
2023-12-23T16:46:07.676Z,21.6
2023-12-23T16:47:51.497Z,21.6
2023-12-23T16:49:35.113Z,21.6
2023-12-23T16:51:18.799Z,21.7
2023-12-23T16:53:02.518Z,21.7
2023-12-23T16:54:46.259Z,21.7
2023-12-23T16:56:29.899Z,21.7
2023-12-23T16:58:13.590Z,21.7
2023-12-23T16:59:57.310Z,21.7
2023-12-23T17:01:40.991Z,21.7
2023-12-23T17:03:24.726Z,21.7
2023-12-23T17:05:08.464Z,21.7
2023-12-23T17:06:52.152Z,21.7
2023-12-23T17:08:35.813Z,21.8
2023-12-23T17:10:19.501Z,21.8
2023-12-23T17:12:03.262Z,21.7
2023-12-23T17:13:46.942Z,21.7
2023-12-23T17:15:30.653Z,21.8
2023-12-23T17:17:14.350Z,21.8
2023-12-23T17:18:58.029Z,21.8
2023-12-23T17:20:41.713Z,21.8
2023-12-23T17:22:25.444Z,21.8
2023-12-23T17:24:09.116Z,21.7
2023-12-23T17:25:52.876Z,21.8
2023-12-23T17:27:36.530Z,21.8
2023-12-23T17:29:20.223Z,21.8
2023-12-23T17:31:03.916Z,21.8
2023-12-23T17:32:47.643Z,21.8
2023-12-23T17:34:31.340Z,21.8
2023-12-23T17:36:15.037Z,21.8
2023-12-23T17:37:58.759Z,21.8
2023-12-23T17:39:42.440Z,21.8
2023-12-23T17:41:26.137Z,21.8
2023-12-23T17:43:09.838Z,21.8
2023-12-23T17:44:53.558Z,21.8
2023-12-23T17:46:37.247Z,21.8
2023-12-23T17:48:20.950Z,21.8
2023-12-23T17:51:48.348Z,21.8
2023-12-23T17:53:32.066Z,21.8
2023-12-23T17:55:15.757Z,21.8
2023-12-23T17:56:59.467Z,21.8
2023-12-23T17:58:43.172Z,21.8
2023-12-23T18:00:26.874Z,21.7
2023-12-23T18:02:10.571Z,21.7
2023-12-23T18:03:54.279Z,21.7
2023-12-23T18:05:37.974Z,21.7
2023-12-23T18:07:21.717Z,21.7
2023-12-23T18:09:05.377Z,21.7
2023-12-23T18:10:49.081Z,21.7
2023-12-23T18:12:32.783Z,21.6
2023-12-23T18:14:16.501Z,21.6
2023-12-23T18:16:00.193Z,21.6
2023-12-23T18:17:43.896Z,21.6
2023-12-23T18:19:27.608Z,21.6
2023-12-23T18:21:11.298Z,21.5
2023-12-23T18:22:55.028Z,21.5
2023-12-23T18:24:38.705Z,21.5
2023-12-23T18:26:22.405Z,21.5
2023-12-23T18:28:06.105Z,21.5
2023-12-23T18:29:49.805Z,21.5
2023-12-23T18:31:33.512Z,21.4
2023-12-23T18:33:17.212Z,21.4
2023-12-23T18:36:44.625Z,21.4
2023-12-23T18:38:28.327Z,21.4
2023-12-23T18:40:12.037Z,21.4
2023-12-23T18:41:55.730Z,21.4
2023-12-23T18:43:39.442Z,21.4
2023-12-23T18:45:23.139Z,21.3
2023-12-23T18:47:06.829Z,21.3
2023-12-23T18:48:50.547Z,21.3
2023-12-23T18:50:34.232Z,21.3
2023-12-23T18:52:17.926Z,21.3
2023-12-23T18:54:01.647Z,21.3
2023-12-23T18:55:45.346Z,21.3
2023-12-23T18:57:29.062Z,21.2
2023-12-23T18:59:12.736Z,21.2
2023-12-23T19:00:56.448Z,21.2
2023-12-23T19:02:40.142Z,21.2
2023-12-23T19:04:23.872Z,21.2
2023-12-23T19:06:07.568Z,21.2
2023-12-23T19:07:51.262Z,21.2
2023-12-23T19:09:34.962Z,21.2
2023-12-23T19:11:18.681Z,21.2
2023-12-23T19:13:02.382Z,21.2
2023-12-23T19:14:46.071Z,21.2
2023-12-23T19:16:29.782Z,21.2
2023-12-23T19:18:13.485Z,21.3
2023-12-23T19:19:57.205Z,21.3
2023-12-23T19:21:40.879Z,21.3
2023-12-23T19:23:24.571Z,21.3
2023-12-23T19:25:08.306Z,21.3
2023-12-23T19:26:52.005Z,21.3
2023-12-23T19:28:35.705Z,21.3
2023-12-23T19:30:19.439Z,21.3
2023-12-23T19:32:03.110Z,21.3
2023-12-23T19:33:46.830Z,21.3
2023-12-23T19:35:30.526Z,21.3
2023-12-23T19:37:14.207Z,21.3
2023-12-23T19:38:57.921Z,21.3
2023-12-23T19:40:41.610Z,21.3
2023-12-23T19:42:25.351Z,21.3
2023-12-23T19:45:51.771Z,21.2
2023-12-23T19:47:35.525Z,21.2
2023-12-23T19:49:19.209Z,21.2
2023-12-23T19:51:02.987Z,21.2
2023-12-23T19:52:46.597Z,21.2
2023-12-23T19:54:30.310Z,21.2
2023-12-23T19:56:13.994Z,21.2
2023-12-23T19:57:57.744Z,21.2
2023-12-23T19:59:41.397Z,21.2
2023-12-23T20:01:25.113Z,21.2
2023-12-23T20:03:08.880Z,21.2
2023-12-23T20:04:52.703Z,21.2
2023-12-23T20:06:36.226Z,21.2
2023-12-23T20:08:19.943Z,21.2
2023-12-23T20:10:03.629Z,21.2
2023-12-23T20:11:47.316Z,21.2
2023-12-23T20:13:31.055Z,21.1
2023-12-23T20:15:14.741Z,21.1
2023-12-23T20:16:58.440Z,21.1
2023-12-23T20:18:42.155Z,21.1
2023-12-23T20:20:25.905Z,21.1
2023-12-23T20:22:09.547Z,21.1
2023-12-23T20:23:53.300Z,21.1
2023-12-23T20:25:36.965Z,21.1
2023-12-23T20:27:20.650Z,21.1
2023-12-23T20:29:04.348Z,21.1
2023-12-23T20:34:15.481Z,21.1
2023-12-23T20:35:59.175Z,21.1
2023-12-23T20:37:42.882Z,21.1
2023-12-23T20:39:26.576Z,21.1
2023-12-23T20:41:10.292Z,21.1
2023-12-23T20:42:53.985Z,21.1
2023-12-23T20:44:37.676Z,21.1
2023-12-23T20:46:21.401Z,21.1
2023-12-23T20:48:05.075Z,21.1
2023-12-23T20:49:48.811Z,21.1
2023-12-23T20:51:32.483Z,21.1
2023-12-23T20:53:16.194Z,21
2023-12-23T20:54:59.913Z,21.1
2023-12-23T20:56:43.610Z,21.1
2023-12-23T20:58:27.301Z,21
2023-12-23T21:00:10.997Z,21.1
2023-12-23T21:01:54.736Z,21.1
2023-12-23T21:03:38.429Z,21.1
2023-12-23T21:05:22.125Z,21.1
2023-12-23T21:07:05.843Z,21.1
2023-12-23T21:08:49.523Z,21.1
2023-12-23T21:10:33.243Z,21.1
2023-12-23T21:12:17.008Z,21.1
2023-12-23T21:14:00.640Z,21.1
2023-12-23T21:15:44.335Z,21.1
2023-12-23T21:17:28.035Z,21.1
2023-12-23T21:19:11.762Z,21
2023-12-23T21:20:55.464Z,21.1
2023-12-23T21:22:39.198Z,21.1
2023-12-23T21:24:22.856Z,21.1
2023-12-23T21:26:06.555Z,21.1
2023-12-23T21:27:50.268Z,21.1
2023-12-23T21:29:33.963Z,21.1
2023-12-23T21:31:17.673Z,21.1
2023-12-23T21:33:01.378Z,21.1
2023-12-23T21:34:45.079Z,21.1
2023-12-23T21:36:28.781Z,21.1
2023-12-23T21:38:12.494Z,21.1
2023-12-23T21:39:56.193Z,21.1
2023-12-23T21:41:39.905Z,21.1
2023-12-23T21:43:23.590Z,21.1
2023-12-23T21:45:07.288Z,21.1
2023-12-23T21:46:51.136Z,21.1
2023-12-23T21:48:34.707Z,21.1
2023-12-23T21:50:18.403Z,21.1
2023-12-23T21:52:02.168Z,21.1
2023-12-23T21:53:45.834Z,21.1
2023-12-23T21:55:29.491Z,21.1
2023-12-23T21:57:13.197Z,21.1
2023-12-23T21:58:56.904Z,21.1
2023-12-23T22:00:40.622Z,21.1
2023-12-23T22:02:24.356Z,21.1
2023-12-23T22:04:08.015Z,21.1
2023-12-23T22:05:51.705Z,21.1
2023-12-23T22:07:35.394Z,21.1
2023-12-23T22:09:19.112Z,21.1
2023-12-23T22:11:02.888Z,21.1
2023-12-23T22:12:46.524Z,21.1
2023-12-23T22:14:30.228Z,21.1
2023-12-23T22:16:13.933Z,21.1
2023-12-23T22:17:57.628Z,21.1
2023-12-23T22:19:41.369Z,21.1
2023-12-23T22:21:25.077Z,21.1
2023-12-23T22:23:08.790Z,21.1
2023-12-23T22:24:52.450Z,21.1
2023-12-23T22:26:36.173Z,21.1
2023-12-23T22:28:19.839Z,21.2
2023-12-23T22:30:03.674Z,21.2
2023-12-23T22:31:47.259Z,21.2
2023-12-23T22:33:30.990Z,21.1
2023-12-23T22:35:14.637Z,21.2
2023-12-23T22:36:58.354Z,21.1
2023-12-23T22:38:42.079Z,21.1
2023-12-23T22:40:25.757Z,21.1
2023-12-23T22:42:09.484Z,21.1
2023-12-23T22:43:53.176Z,21.1
2023-12-23T22:45:36.876Z,21.1
2023-12-23T22:47:20.585Z,21.1
2023-12-23T22:49:04.280Z,21.1
2023-12-23T22:50:47.974Z,21.1
2023-12-23T22:52:31.684Z,21.1
2023-12-23T22:54:15.378Z,21.1
2023-12-23T22:55:59.115Z,21.1
2023-12-23T22:57:42.779Z,21.1
2023-12-23T22:59:26.488Z,21.1
2023-12-23T23:01:10.195Z,21.1
2023-12-23T23:02:53.902Z,21.2
2023-12-23T23:04:37.603Z,21.2
2023-12-23T23:06:21.285Z,21.2
2023-12-23T23:08:05.004Z,21.2
2023-12-23T23:09:48.716Z,21.2
2023-12-23T23:11:32.410Z,21.2
2023-12-23T23:13:16.111Z,21.2
2023-12-23T23:14:59.820Z,21.2
2023-12-23T23:16:43.535Z,21.2